Ben Hur, Texas
Current Conditions -  °F | °C
As of 3:55 PM on Friday 19 Dec 2014 (Local Time) from KCNW Reporting Station
Overcast Overcast  
Wind Chill: 50°   Ceiling: 1400
Heat Index: 50°   Visibility: 7mi
Dew Point: 48°   Wind: 8mph
Humidity: 94%   Direction: 360°N
Pressure: 30.15"   Gusts: NA
Location:  31.5521°N, 96.8628°W
Report Text: KCNW 192155Z 36007KT 7SM SCT008 OVC014 10/09 A3015
Loading
Personal Weather Stations






























Interactive Weather Map New forecast layout! Learn more

10-Day Weather Forecast

Advertisements
Track Severe Weather on mobile